createdAt,value
2023-01-27T00:00:06.933Z,1.76
2023-01-27T00:01:05.443Z,1.78
2023-01-27T00:02:05.506Z,1.76
2023-01-27T00:03:05.425Z,1.78
2023-01-27T00:04:05.423Z,1.78
2023-01-27T00:05:05.442Z,1.78
2023-01-27T00:06:05.447Z,1.78
2023-01-27T00:07:06.505Z,1.76
2023-01-27T00:08:05.354Z,1.78
2023-01-27T00:09:05.382Z,1.76
2023-01-27T00:10:06.196Z,1.78
2023-01-27T00:11:05.394Z,1.78
2023-01-27T00:12:05.385Z,1.78
2023-01-27T00:13:06.411Z,1.78
2023-01-27T00:14:05.362Z,1.78
2023-01-27T00:15:05.414Z,1.79
2023-01-27T00:16:05.291Z,1.79
2023-01-27T00:17:05.266Z,1.79
2023-01-27T00:18:05.270Z,1.80
2023-01-27T00:19:05.308Z,1.80
2023-01-27T00:20:05.247Z,1.79
2023-01-27T00:21:05.215Z,1.80
2023-01-27T00:22:05.455Z,1.82
2023-01-27T00:23:05.197Z,1.82
2023-01-27T00:24:05.267Z,1.83
2023-01-27T00:25:05.237Z,1.82
2023-01-27T00:26:05.137Z,1.85
2023-01-27T00:27:05.167Z,1.87
2023-01-27T00:28:05.116Z,1.89
2023-01-27T00:29:05.087Z,1.90
2023-01-27T00:30:05.079Z,1.89
2023-01-27T00:31:05.390Z,1.91
2023-01-27T00:32:05.060Z,1.90
2023-01-27T00:33:05.024Z,1.93
2023-01-27T00:34:05.296Z,1.91
2023-01-27T00:35:05.018Z,1.93
2023-01-27T00:36:05.627Z,1.94
2023-01-27T00:37:05.677Z,1.97
2023-01-27T00:38:04.998Z,1.97
2023-01-27T00:39:04.954Z,1.98
2023-01-27T00:40:04.978Z,1.99
2023-01-27T00:41:05.792Z,2.01
2023-01-27T00:42:05.688Z,2.01
2023-01-27T00:43:05.163Z,2.02
2023-01-27T00:44:04.934Z,2.04
2023-01-27T00:45:04.880Z,2.06
2023-01-27T00:46:04.906Z,2.08
2023-01-27T00:47:05.259Z,2.08
2023-01-27T00:48:04.850Z,2.10
2023-01-27T00:49:04.864Z,2.09
2023-01-27T00:50:04.844Z,2.12
2023-01-27T00:51:06.299Z,2.13
2023-01-27T00:52:04.891Z,2.13
2023-01-27T00:53:04.834Z,2.13
2023-01-27T00:54:04.795Z,2.12
2023-01-27T00:55:04.875Z,2.12
2023-01-27T00:56:04.771Z,2.12
2023-01-27T00:57:04.816Z,2.13
2023-01-27T00:58:04.752Z,2.13
2023-01-27T00:59:04.913Z,2.16
2023-01-27T01:00:04.727Z,2.17
2023-01-27T01:01:04.872Z,2.19
2023-01-27T01:02:05.071Z,2.20
2023-01-27T01:03:05.843Z,2.23
2023-01-27T01:04:04.801Z,2.27
2023-01-27T01:05:04.654Z,2.33
2023-01-27T01:06:04.655Z,2.33
2023-01-27T01:07:04.630Z,2.33
2023-01-27T01:08:04.685Z,2.37
2023-01-27T01:09:04.651Z,2.38
2023-01-27T01:10:04.590Z,2.40
2023-01-27T01:11:04.746Z,2.41
2023-01-27T01:12:04.530Z,2.46
2023-01-27T01:13:04.549Z,2.48
2023-01-27T01:14:04.558Z,2.49
2023-01-27T01:15:04.487Z,2.49
2023-01-27T01:16:04.513Z,2.49
2023-01-27T01:17:04.487Z,2.53
2023-01-27T01:18:04.483Z,2.56
2023-01-27T01:19:04.504Z,2.58
2023-01-27T01:20:04.452Z,2.59
2023-01-27T01:21:04.435Z,2.58
2023-01-27T01:22:05.069Z,2.61
2023-01-27T01:23:05.329Z,2.63
2023-01-27T01:24:04.610Z,2.63
2023-01-27T01:25:04.402Z,2.66
2023-01-27T01:26:04.382Z,2.66
2023-01-27T01:27:04.343Z,2.64
2023-01-27T01:28:04.318Z,2.63
2023-01-27T01:29:04.366Z,2.64
2023-01-27T01:30:04.336Z,2.61
2023-01-27T01:31:04.463Z,2.63
2023-01-27T01:32:04.294Z,2.64
2023-01-27T01:33:04.288Z,2.64
2023-01-27T01:34:04.298Z,2.63
2023-01-27T01:35:04.243Z,2.64
2023-01-27T01:36:04.223Z,2.67
2023-01-27T01:37:04.364Z,2.69
2023-01-27T01:38:04.400Z,2.70
2023-01-27T01:39:04.248Z,2.67
2023-01-27T01:40:04.203Z,2.69
2023-01-27T01:41:04.166Z,2.69
2023-01-27T01:42:04.177Z,2.69
2023-01-27T01:43:05.633Z,2.69
2023-01-27T01:44:04.214Z,2.70
2023-01-27T01:45:04.186Z,2.71
2023-01-27T01:46:04.135Z,2.73
2023-01-27T01:47:04.120Z,2.74
2023-01-27T01:48:04.095Z,2.74
2023-01-27T01:49:04.102Z,2.74
2023-01-27T01:50:04.085Z,2.76
2023-01-27T01:51:04.077Z,2.74
2023-01-27T01:52:04.020Z,2.76
2023-01-27T01:53:04.092Z,2.77
2023-01-27T01:54:04.937Z,2.79
2023-01-27T01:55:04.196Z,2.81
2023-01-27T01:56:04.012Z,2.81
2023-01-27T01:57:03.998Z,2.81
2023-01-27T01:58:03.953Z,2.82
2023-01-27T01:59:03.926Z,2.84
2023-01-27T02:00:04.177Z,2.87
2023-01-27T02:01:03.946Z,2.88
2023-01-27T02:02:05.270Z,2.88
2023-01-27T02:03:03.908Z,2.84
2023-01-27T02:04:04.974Z,2.85
2023-01-27T02:05:03.895Z,2.85
2023-01-27T02:06:03.898Z,2.87
2023-01-27T02:07:04.693Z,2.87
2023-01-27T02:08:03.991Z,2.88
2023-01-27T02:09:03.824Z,2.89
2023-01-27T02:10:03.804Z,2.89
2023-01-27T02:11:03.777Z,2.91
2023-01-27T02:12:04.203Z,2.91
2023-01-27T02:13:03.791Z,2.92
2023-01-27T02:14:03.768Z,2.92
2023-01-27T02:15:04.950Z,2.95
2023-01-27T02:16:04.297Z,2.97
2023-01-27T02:17:03.848Z,2.95
2023-01-27T02:18:03.888Z,2.94
2023-01-27T02:19:03.736Z,2.94
2023-01-27T02:20:03.790Z,2.95
2023-01-27T02:21:03.715Z,2.94
2023-01-27T02:22:03.675Z,2.95
2023-01-27T02:23:03.735Z,2.94
2023-01-27T02:24:03.661Z,2.95
2023-01-27T02:25:03.621Z,2.94
2023-01-27T02:26:03.595Z,2.94
2023-01-27T02:27:04.331Z,2.95
2023-01-27T02:28:03.706Z,2.95
2023-01-27T02:29:03.591Z,2.94
2023-01-27T02:30:03.543Z,2.94
2023-01-27T02:31:03.637Z,2.94
2023-01-27T02:32:03.553Z,2.97
2023-01-27T02:33:03.486Z,2.97
2023-01-27T02:34:03.477Z,2.98
2023-01-27T02:35:03.481Z,2.98
2023-01-27T02:36:03.570Z,2.98
2023-01-27T02:37:03.467Z,2.98
2023-01-27T02:38:03.472Z,2.98
2023-01-27T02:39:03.506Z,3.00
2023-01-27T02:40:03.428Z,2.97
2023-01-27T02:41:03.469Z,3.03
2023-01-27T02:42:03.499Z,3.00
2023-01-27T02:43:03.398Z,3.00
2023-01-27T02:44:03.398Z,3.00
2023-01-27T02:45:03.414Z,3.00
2023-01-27T02:46:03.415Z,3.02
2023-01-27T02:47:03.356Z,3.03
2023-01-27T02:48:03.328Z,3.03
2023-01-27T02:49:03.323Z,3.03
2023-01-27T02:50:03.283Z,3.03
2023-01-27T02:51:03.279Z,3.06
2023-01-27T02:52:03.316Z,3.05
2023-01-27T02:53:04.371Z,3.05
2023-01-27T02:54:03.509Z,3.03
2023-01-27T02:55:04.193Z,3.03
2023-01-27T02:56:03.378Z,3.03
2023-01-27T02:57:03.223Z,3.02
2023-01-27T02:58:03.210Z,3.05
2023-01-27T02:59:03.156Z,3.05
2023-01-27T03:00:03.169Z,3.06
2023-01-27T03:01:03.224Z,3.05
2023-01-27T03:02:03.186Z,3.05
2023-01-27T03:03:03.135Z,3.05
2023-01-27T03:04:03.106Z,3.05
2023-01-27T03:05:03.085Z,3.05
2023-01-27T03:06:03.882Z,3.06
2023-01-27T03:07:03.087Z,3.07
2023-01-27T03:08:03.140Z,3.07
2023-01-27T03:09:03.109Z,3.07
2023-01-27T03:10:03.079Z,3.09
2023-01-27T03:11:03.049Z,3.06
2023-01-27T03:12:03.023Z,3.07
2023-01-27T03:13:03.000Z,3.07
2023-01-27T03:14:03.007Z,3.09
2023-01-27T03:15:03.283Z,3.09
2023-01-27T03:16:02.986Z,3.07
2023-01-27T03:17:02.954Z,3.10
2023-01-27T03:18:04.021Z,3.10
2023-01-27T03:19:03.039Z,3.12
2023-01-27T03:20:02.891Z,3.12
2023-01-27T03:21:03.857Z,3.12
2023-01-27T03:22:02.926Z,3.12
2023-01-27T03:23:02.956Z,3.12
2023-01-27T03:24:04.002Z,3.12
2023-01-27T03:25:02.874Z,3.12
2023-01-27T03:26:02.891Z,3.12
2023-01-27T03:27:02.799Z,3.13
2023-01-27T03:28:02.849Z,3.12
2023-01-27T03:29:02.770Z,3.12
2023-01-27T03:30:02.754Z,3.10
2023-01-27T03:31:02.838Z,3.10
2023-01-27T03:32:02.772Z,3.12
2023-01-27T03:33:02.793Z,3.12
2023-01-27T03:34:02.753Z,3.10
2023-01-27T03:35:02.745Z,3.13
2023-01-27T03:36:02.729Z,3.13
2023-01-27T03:37:02.681Z,3.15
2023-01-27T03:38:02.669Z,3.16
2023-01-27T03:39:03.114Z,3.16
2023-01-27T03:40:02.632Z,3.16
2023-01-27T03:41:02.657Z,3.15
2023-01-27T03:42:02.624Z,3.15
2023-01-27T03:43:02.640Z,3.15
2023-01-27T03:44:02.687Z,3.15
2023-01-27T03:45:02.606Z,3.16
2023-01-27T03:46:02.772Z,3.16
2023-01-27T03:47:02.560Z,3.18
2023-01-27T03:48:02.558Z,3.18
2023-01-27T03:49:02.567Z,3.16
2023-01-27T03:50:02.587Z,3.18
2023-01-27T03:51:02.499Z,3.18
2023-01-27T03:52:02.477Z,3.20
2023-01-27T03:53:02.501Z,3.20
2023-01-27T03:54:02.490Z,3.21
2023-01-27T03:55:02.465Z,3.21
2023-01-27T03:56:02.469Z,3.20
2023-01-27T03:57:02.424Z,3.20
2023-01-27T03:58:02.417Z,3.20
2023-01-27T03:59:02.482Z,3.21
2023-01-27T04:00:02.378Z,3.21
2023-01-27T04:01:02.419Z,3.21
2023-01-27T04:02:02.598Z,3.20
2023-01-27T04:03:02.402Z,3.18
2023-01-27T04:04:02.327Z,3.21
2023-01-27T04:05:02.329Z,3.20
2023-01-27T04:06:02.336Z,3.20
2023-01-27T04:07:02.350Z,3.21
2023-01-27T04:08:02.298Z,3.20
2023-01-27T04:09:02.277Z,3.21
2023-01-27T04:10:02.252Z,3.21
2023-01-27T04:11:02.262Z,3.24
2023-01-27T04:12:03.264Z,3.25
2023-01-27T04:13:02.383Z,3.24
2023-01-27T04:14:02.264Z,3.25
2023-01-27T04:15:02.238Z,3.25
2023-01-27T04:16:02.229Z,3.25
2023-01-27T04:17:02.199Z,3.25
2023-01-27T04:18:02.137Z,3.27
2023-01-27T04:19:02.165Z,3.28
2023-01-27T04:20:02.110Z,3.30
2023-01-27T04:21:02.098Z,3.31
2023-01-27T04:22:02.133Z,3.33
2023-01-27T04:23:02.092Z,3.33
2023-01-27T04:24:02.123Z,3.33
2023-01-27T04:25:02.050Z,3.33
2023-01-27T04:26:02.071Z,3.33
2023-01-27T04:27:02.153Z,3.31
2023-01-27T04:28:02.050Z,3.33
2023-01-27T04:29:02.015Z,3.36
2023-01-27T04:30:02.055Z,3.34
2023-01-27T04:31:02.030Z,3.39
2023-01-27T04:32:01.993Z,3.39
2023-01-27T04:33:01.958Z,3.39
2023-01-27T04:34:01.927Z,3.36
2023-01-27T04:35:02.156Z,3.39
2023-01-27T04:36:01.964Z,3.39
2023-01-27T04:37:01.900Z,3.39
2023-01-27T04:38:02.991Z,3.39
2023-01-27T04:39:01.940Z,3.39
2023-01-27T04:40:01.901Z,3.39
2023-01-27T04:41:01.864Z,3.36
2023-01-27T04:42:01.868Z,3.42
2023-01-27T04:43:01.865Z,3.40
2023-01-27T04:44:01.841Z,3.42
2023-01-27T04:45:01.793Z,3.42
2023-01-27T04:46:01.932Z,3.42
2023-01-27T04:47:01.806Z,3.42
2023-01-27T04:48:01.797Z,3.42
2023-01-27T04:49:01.765Z,3.42
2023-01-27T04:50:01.738Z,3.42
2023-01-27T04:51:01.711Z,3.43
2023-01-27T04:52:01.731Z,3.43
2023-01-27T04:53:01.764Z,3.44
2023-01-27T04:54:01.675Z,3.46
2023-01-27T04:55:01.687Z,3.44
2023-01-27T04:56:01.663Z,3.43
2023-01-27T04:57:01.672Z,3.44
2023-01-27T04:58:01.707Z,3.44
2023-01-27T04:59:01.645Z,3.47
2023-01-27T05:00:01.647Z,3.47
2023-01-27T05:01:01.615Z,3.49
2023-01-27T05:02:01.684Z,3.50
2023-01-27T05:03:02.597Z,3.52
2023-01-27T05:04:01.790Z,3.49
2023-01-27T05:05:01.606Z,3.50
2023-01-27T05:06:01.604Z,3.52
2023-01-27T05:07:01.681Z,3.50
2023-01-27T05:08:02.094Z,3.53
2023-01-27T05:09:01.911Z,3.52
2023-01-27T05:10:01.552Z,3.52
2023-01-27T05:11:01.454Z,3.50
2023-01-27T05:12:01.600Z,3.50
2023-01-27T05:13:02.233Z,3.50
2023-01-27T05:14:01.435Z,3.52
2023-01-27T05:15:01.594Z,3.50
2023-01-27T05:16:02.447Z,3.49
2023-01-27T05:17:02.350Z,3.50
2023-01-27T05:18:01.384Z,3.52
2023-01-27T05:19:01.544Z,3.50
2023-01-27T05:20:01.376Z,3.52
2023-01-27T05:21:01.428Z,3.52
2023-01-27T05:22:01.328Z,3.57
2023-01-27T05:23:01.315Z,3.57
2023-01-27T05:24:01.381Z,3.57
2023-01-27T05:25:02.069Z,3.57
2023-01-27T05:26:01.469Z,3.57
2023-01-27T05:27:01.623Z,3.54
2023-01-27T05:28:01.396Z,3.57
2023-01-27T05:29:01.339Z,3.58
2023-01-27T05:30:01.230Z,3.54
2023-01-27T05:31:01.686Z,3.53
2023-01-27T05:32:01.329Z,3.54
2023-01-27T05:33:02.330Z,3.57
2023-01-27T05:34:01.204Z,3.58
2023-01-27T05:35:01.272Z,3.54
2023-01-27T05:36:01.168Z,3.54
2023-01-27T05:37:01.327Z,3.54
2023-01-27T05:38:01.287Z,3.57
2023-01-27T05:39:01.137Z,3.58
2023-01-27T05:40:01.140Z,3.57
2023-01-27T05:41:01.197Z,3.57
2023-01-27T05:42:01.132Z,3.58
2023-01-27T05:43:01.092Z,3.58
2023-01-27T05:44:02.108Z,3.57
2023-01-27T05:45:02.188Z,3.54
2023-01-27T05:46:02.038Z,3.57
2023-01-27T05:47:02.111Z,3.58
2023-01-27T05:48:01.057Z,3.58
2023-01-27T05:49:00.980Z,3.57
2023-01-27T05:50:01.173Z,3.57
2023-01-27T05:51:01.141Z,3.54
2023-01-27T05:52:00.978Z,3.54
2023-01-27T05:53:01.127Z,3.54
2023-01-27T05:54:00.954Z,3.57
2023-01-27T05:55:01.752Z,3.57
2023-01-27T05:56:00.941Z,3.58
2023-01-27T05:57:00.906Z,3.54
2023-01-27T05:58:00.864Z,3.54
2023-01-27T05:59:00.892Z,3.57
2023-01-27T06:00:00.848Z,3.54
2023-01-27T06:01:00.850Z,3.54
2023-01-27T06:02:00.902Z,3.57
2023-01-27T06:03:00.884Z,3.57
2023-01-27T06:04:01.907Z,3.58
2023-01-27T06:05:01.822Z,3.57
2023-01-27T06:06:00.840Z,3.57
2023-01-27T06:07:01.621Z,3.54
2023-01-27T06:08:01.702Z,3.54
2023-01-27T06:09:00.802Z,3.54
2023-01-27T06:10:01.705Z,3.57
2023-01-27T06:11:00.939Z,3.57
2023-01-27T06:12:00.903Z,3.54
2023-01-27T06:13:00.712Z,3.54
2023-01-27T06:14:01.458Z,3.54
2023-01-27T06:15:00.734Z,3.52
2023-01-27T06:16:00.974Z,3.52
2023-01-27T06:17:00.811Z,3.53
2023-01-27T06:18:00.663Z,3.52
2023-01-27T06:19:01.289Z,3.52
2023-01-27T06:20:00.587Z,3.50
2023-01-27T06:21:00.680Z,3.52
2023-01-27T06:22:00.601Z,3.52
2023-01-27T06:23:00.984Z,3.50
2023-01-27T06:24:00.557Z,3.50
2023-01-27T06:25:01.484Z,3.47
2023-01-27T06:26:01.471Z,3.47
2023-01-27T06:27:00.694Z,3.49
2023-01-27T06:28:00.483Z,3.46
2023-01-27T06:29:00.487Z,3.47
2023-01-27T06:30:01.436Z,3.44
2023-01-27T06:31:00.605Z,3.46
2023-01-27T06:32:00.494Z,3.43
2023-01-27T06:33:00.498Z,3.43
2023-01-27T06:34:00.406Z,3.44
2023-01-27T06:35:00.525Z,3.44
2023-01-27T06:36:00.546Z,3.44
2023-01-27T06:37:00.442Z,3.43
2023-01-27T06:38:00.556Z,3.44
2023-01-27T06:39:00.384Z,3.42
2023-01-27T06:40:00.327Z,3.44
2023-01-27T06:41:00.315Z,3.43
2023-01-27T06:42:00.299Z,3.44
2023-01-27T06:43:00.405Z,3.42
2023-01-27T06:44:00.518Z,3.43
2023-01-27T06:45:00.370Z,3.43
2023-01-27T06:46:00.313Z,3.43
2023-01-27T06:47:01.358Z,3.44
2023-01-27T06:48:01.287Z,3.46
2023-01-27T06:49:00.276Z,3.43
2023-01-27T06:50:01.145Z,3.44
2023-01-27T06:51:00.990Z,3.44
2023-01-27T06:52:00.163Z,3.43
2023-01-27T06:53:00.200Z,3.44
2023-01-27T06:54:00.327Z,3.44
2023-01-27T06:55:00.346Z,3.43
2023-01-27T06:56:00.483Z,3.43
2023-01-27T06:57:00.166Z,3.43
2023-01-27T06:58:00.439Z,3.43
2023-01-27T06:59:00.124Z,3.43
2023-01-27T07:00:00.850Z,3.43
2023-01-27T07:01:01.042Z,3.40
2023-01-27T07:02:00.101Z,3.42
2023-01-27T07:03:00.043Z,3.42
2023-01-27T07:03:59.991Z,3.42
2023-01-27T07:05:00.019Z,3.42
2023-01-27T07:06:00.114Z,3.42
2023-01-27T07:06:59.971Z,3.40
2023-01-27T07:08:00.871Z,3.40
2023-01-27T07:09:00.797Z,3.40
2023-01-27T07:10:00.076Z,3.40
2023-01-27T07:10:59.930Z,3.40
2023-01-27T07:11:59.969Z,3.40
2023-01-27T07:12:59.981Z,3.39
2023-01-27T07:14:00.122Z,3.39
2023-01-27T07:15:00.267Z,3.36
2023-01-27T07:15:59.928Z,3.36
2023-01-27T07:16:59.878Z,3.36
2023-01-27T07:18:00.942Z,3.39
2023-01-27T07:18:59.862Z,3.36
2023-01-27T07:20:00.757Z,3.34
2023-01-27T07:21:00.809Z,3.34
2023-01-27T07:22:00.114Z,3.34
2023-01-27T07:22:59.828Z,3.34
2023-01-27T07:23:59.781Z,3.36
2023-01-27T07:25:00.695Z,3.34
2023-01-27T07:26:00.981Z,3.36
2023-01-27T07:27:00.595Z,3.34
2023-01-27T07:28:00.526Z,3.33
2023-01-27T07:29:00.920Z,3.34
2023-01-27T07:29:59.734Z,3.33
2023-01-27T07:31:00.774Z,3.34
2023-01-27T07:31:59.865Z,3.34
2023-01-27T07:33:00.538Z,3.34
2023-01-27T07:33:59.655Z,3.34
2023-01-27T07:35:00.850Z,3.33
2023-01-27T07:35:59.743Z,3.34
2023-01-27T07:36:59.671Z,3.34
2023-01-27T07:37:59.735Z,3.34
2023-01-27T07:39:00.472Z,3.34
2023-01-27T07:40:00.376Z,3.34
2023-01-27T07:40:59.710Z,3.36
2023-01-27T07:41:59.602Z,3.36
2023-01-27T07:42:59.531Z,3.34
2023-01-27T07:43:59.613Z,3.34
2023-01-27T07:44:59.593Z,3.36
2023-01-27T07:45:59.716Z,3.36
2023-01-27T07:46:59.467Z,3.36
2023-01-27T07:48:00.623Z,3.36
2023-01-27T07:48:59.479Z,3.34
2023-01-27T07:49:59.549Z,3.34
2023-01-27T07:50:59.412Z,3.34
2023-01-27T07:51:59.414Z,3.34
2023-01-27T07:53:00.469Z,3.34
2023-01-27T07:54:02.104Z,3.36
2023-01-27T07:54:59.623Z,3.34
2023-01-27T07:55:59.443Z,3.36
2023-01-27T07:57:00.273Z,3.34
2023-01-27T07:58:00.180Z,3.34
2023-01-27T07:58:59.341Z,3.33
2023-01-27T07:59:59.365Z,3.34
2023-01-27T08:00:59.357Z,3.34
2023-01-27T08:01:59.282Z,3.34
2023-01-27T08:02:59.411Z,3.34
2023-01-27T08:04:00.141Z,3.34
2023-01-27T08:05:00.013Z,3.34
2023-01-27T08:06:00.433Z,3.34
2023-01-27T08:07:00.334Z,3.36
2023-01-27T08:07:59.313Z,3.36
2023-01-27T08:09:00.143Z,3.34
2023-01-27T08:09:59.260Z,3.34
2023-01-27T08:10:59.966Z,3.34
2023-01-27T08:12:00.117Z,3.36
2023-01-27T08:12:59.164Z,3.36
2023-01-27T08:14:00.192Z,3.34
2023-01-27T08:14:59.117Z,3.39
2023-01-27T08:15:59.126Z,3.36
2023-01-27T08:16:59.201Z,3.40
2023-01-27T08:18:00.349Z,3.39
2023-01-27T08:18:59.078Z,3.39
2023-01-27T08:20:00.143Z,3.40
2023-01-27T08:20:59.066Z,3.39
2023-01-27T08:21:59.032Z,3.40
2023-01-27T08:22:59.036Z,3.40
2023-01-27T08:23:59.156Z,3.42
2023-01-27T08:24:59.123Z,3.43
2023-01-27T08:25:59.044Z,3.43
2023-01-27T08:26:59.966Z,3.43
2023-01-27T08:27:58.980Z,3.44
2023-01-27T08:28:59.123Z,3.49
2023-01-27T08:29:58.964Z,3.49
2023-01-27T08:30:58.919Z,3.49
2023-01-27T08:31:59.187Z,3.49
2023-01-27T08:32:59.359Z,3.49
2023-01-27T08:33:59.121Z,3.49
2023-01-27T08:34:58.847Z,3.50
2023-01-27T08:35:59.116Z,3.50
2023-01-27T08:36:58.877Z,3.52
2023-01-27T08:37:58.979Z,3.52
2023-01-27T08:38:58.940Z,3.54
2023-01-27T08:39:58.844Z,3.58
2023-01-27T08:40:58.813Z,3.57
2023-01-27T08:41:58.876Z,3.58
2023-01-27T08:42:58.927Z,3.58
2023-01-27T08:43:58.769Z,3.58
2023-01-27T08:44:58.991Z,3.61
2023-01-27T08:45:58.765Z,3.61
2023-01-27T08:46:59.631Z,3.62
2023-01-27T08:47:58.711Z,3.64
2023-01-27T08:48:59.897Z,3.64
2023-01-27T08:49:59.792Z,3.67
2023-01-27T08:50:59.178Z,3.65
2023-01-27T08:51:59.595Z,3.65
2023-01-27T08:52:58.681Z,3.64
2023-01-27T08:53:59.031Z,3.65
2023-01-27T08:54:58.868Z,3.68
2023-01-27T08:55:58.790Z,3.67
2023-01-27T08:56:58.650Z,3.65
2023-01-27T08:57:58.572Z,3.68
2023-01-27T08:58:58.569Z,3.70
2023-01-27T08:59:59.339Z,3.71
2023-01-27T09:00:59.512Z,3.72
2023-01-27T09:01:58.631Z,3.76
2023-01-27T09:02:58.511Z,3.75
2023-01-27T09:03:59.422Z,3.75
2023-01-27T09:04:59.380Z,3.72
2023-01-27T09:05:59.285Z,3.76
2023-01-27T09:06:59.699Z,3.76
2023-01-27T09:07:58.414Z,3.72
2023-01-27T09:08:58.439Z,3.75
2023-01-27T09:10:13.096Z,3.71
2023-01-27T09:10:59.458Z,3.75
2023-01-27T09:11:58.408Z,3.76
2023-01-27T09:12:59.205Z,3.72
2023-01-27T09:13:58.600Z,3.76
2023-01-27T09:14:59.315Z,3.75
2023-01-27T09:15:58.849Z,3.71
2023-01-27T09:16:58.343Z,3.72
2023-01-27T09:17:58.310Z,3.75
2023-01-27T09:18:58.328Z,3.76
2023-01-27T09:19:58.294Z,3.78
2023-01-27T09:20:59.217Z,3.78
2023-01-27T09:21:58.227Z,3.78
2023-01-27T09:22:59.186Z,3.78
2023-01-27T09:23:59.224Z,3.78
2023-01-27T09:24:58.314Z,3.78
2023-01-27T09:25:58.265Z,3.78
2023-01-27T09:27:00.826Z,3.78
2023-01-27T09:27:59.193Z,3.76
2023-01-27T09:28:58.302Z,3.75
2023-01-27T09:29:59.031Z,3.72
2023-01-27T09:30:58.293Z,3.71
2023-01-27T09:31:58.362Z,3.72
2023-01-27T09:32:58.128Z,3.71
2023-01-27T09:33:59.157Z,3.70
2023-01-27T09:34:58.271Z,3.71
2023-01-27T09:35:59.001Z,3.70
2023-01-27T09:36:58.373Z,3.70
2023-01-27T09:37:58.303Z,3.68
2023-01-27T09:38:58.060Z,3.70
2023-01-27T09:39:58.362Z,3.70
2023-01-27T09:40:58.005Z,3.71
2023-01-27T09:41:58.108Z,3.70
2023-01-27T09:42:58.073Z,3.75
2023-01-27T09:43:59.221Z,3.75
2023-01-27T09:44:58.175Z,3.72
2023-01-27T09:45:58.919Z,3.71
2023-01-27T09:46:59.959Z,3.72
2023-01-27T09:47:58.831Z,3.70
2023-01-27T09:48:57.904Z,3.68
2023-01-27T09:49:58.103Z,3.70
2023-01-27T09:50:57.882Z,3.70
2023-01-27T09:51:57.866Z,3.68
2023-01-27T09:52:58.453Z,3.71
2023-01-27T09:53:57.844Z,3.72
2023-01-27T09:54:58.682Z,3.75
2023-01-27T09:55:58.579Z,3.72
2023-01-27T09:56:57.995Z,3.76
2023-01-27T09:57:57.978Z,3.75
2023-01-27T09:58:57.798Z,3.75
2023-01-27T09:59:57.873Z,3.75
2023-01-27T10:00:57.979Z,3.71
2023-01-27T10:01:57.801Z,3.71
2023-01-27T10:02:57.732Z,3.72
2023-01-27T10:03:57.904Z,3.75
2023-01-27T10:04:58.127Z,3.75
2023-01-27T10:05:58.053Z,3.76
2023-01-27T10:06:57.819Z,3.79
2023-01-27T10:07:57.670Z,3.80
2023-01-27T10:08:57.684Z,3.82
2023-01-27T10:09:58.773Z,3.82
2023-01-27T10:10:58.019Z,3.85
2023-01-27T10:11:58.574Z,3.85
2023-01-27T10:12:57.740Z,3.83
2023-01-27T10:13:57.764Z,3.82
2023-01-27T10:14:57.559Z,3.83
2023-01-27T10:15:57.578Z,3.86
2023-01-27T10:16:58.512Z,3.88
2023-01-27T10:17:58.384Z,3.86
2023-01-27T10:18:58.414Z,3.85
2023-01-27T10:19:57.512Z,3.86
2023-01-27T10:20:57.567Z,3.86
2023-01-27T10:21:59.606Z,3.83
2023-01-27T10:22:58.478Z,3.83
2023-01-27T10:23:57.473Z,3.85
2023-01-27T10:24:57.421Z,3.86
2023-01-27T10:25:58.082Z,3.86
2023-01-27T10:26:58.162Z,3.89
2023-01-27T10:27:57.391Z,3.89
2023-01-27T10:28:57.378Z,3.92
2023-01-27T10:29:57.907Z,3.92
2023-01-27T10:30:57.393Z,3.92
2023-01-27T10:31:57.403Z,3.88
2023-01-27T10:32:57.792Z,3.86
2023-01-27T10:33:57.435Z,3.86
2023-01-27T10:34:57.282Z,3.86
2023-01-27T10:35:58.296Z,3.83
2023-01-27T10:36:57.506Z,3.83
2023-01-27T10:37:57.986Z,3.82
2023-01-27T10:38:58.174Z,3.82
2023-01-27T10:39:57.244Z,3.83
2023-01-27T10:40:57.217Z,3.83
2023-01-27T10:41:57.242Z,3.86
2023-01-27T10:42:58.164Z,3.88
2023-01-27T10:43:57.236Z,3.86
2023-01-27T10:44:57.367Z,3.89
2023-01-27T10:45:57.859Z,3.94
2023-01-27T10:46:58.332Z,3.94
2023-01-27T10:47:58.186Z,3.96
2023-01-27T10:48:57.149Z,3.96
2023-01-27T10:49:57.075Z,3.96
2023-01-27T10:50:57.102Z,3.94
2023-01-27T10:51:57.358Z,3.92
2023-01-27T10:52:57.085Z,3.94
2023-01-27T10:53:57.458Z,3.97
2023-01-27T10:54:57.042Z,4.00
2023-01-27T10:55:57.138Z,4.03
2023-01-27T10:56:57.027Z,4.08
2023-01-27T10:57:57.204Z,4.12
2023-01-27T10:58:57.346Z,4.14
2023-01-27T11:00:33.619Z,4.14
2023-01-27T11:01:19.988Z,4.14
2023-01-27T11:01:58.115Z,4.16
2023-01-27T11:02:57.517Z,4.16
2023-01-27T11:03:56.938Z,4.10
2023-01-27T11:04:56.930Z,4.07
2023-01-27T11:05:56.876Z,4.03
2023-01-27T11:06:57.901Z,3.97
2023-01-27T11:07:56.940Z,3.96
2023-01-27T11:08:56.894Z,3.97
2023-01-27T11:09:56.875Z,3.90
2023-01-27T11:10:56.988Z,3.92
2023-01-27T11:11:56.839Z,3.90
2023-01-27T11:12:56.838Z,3.89
2023-01-27T11:13:57.279Z,3.88
2023-01-27T11:14:57.646Z,3.86
2023-01-27T11:15:56.878Z,3.90
2023-01-27T11:16:56.740Z,3.92
2023-01-27T11:17:56.781Z,4.00
2023-01-27T11:18:56.709Z,3.98
2023-01-27T11:19:56.767Z,4.00
2023-01-27T11:20:56.757Z,4.01
2023-01-27T11:22:07.015Z,4.00
2023-01-27T11:22:57.672Z,4.00
2023-01-27T11:23:56.726Z,4.01
2023-01-27T11:24:57.182Z,4.00
2023-01-27T11:25:56.667Z,3.97
2023-01-27T11:26:56.619Z,3.97
2023-01-27T11:27:56.825Z,3.96
2023-01-27T11:28:56.609Z,3.92
2023-01-27T11:29:56.632Z,3.90
2023-01-27T11:30:56.713Z,3.88
2023-01-27T11:31:56.633Z,3.85
2023-01-27T11:32:56.572Z,3.85
2023-01-27T11:33:56.530Z,3.83
2023-01-27T11:34:57.817Z,3.82
2023-01-27T11:35:56.673Z,3.80
2023-01-27T11:36:57.584Z,3.80
2023-01-27T11:38:09.784Z,3.78
2023-01-27T11:38:57.607Z,3.78
2023-01-27T11:39:56.469Z,3.79
2023-01-27T11:40:57.206Z,3.79
2023-01-27T11:41:56.429Z,3.79
2023-01-27T11:42:56.403Z,3.76
2023-01-27T11:43:56.369Z,3.78
2023-01-27T11:44:56.590Z,3.79
2023-01-27T11:45:56.428Z,3.80
2023-01-27T11:46:56.523Z,3.86
2023-01-27T11:47:57.550Z,3.89
2023-01-27T11:48:57.490Z,3.90
2023-01-27T11:49:56.312Z,3.92
2023-01-27T11:50:56.593Z,3.92
2023-01-27T11:51:56.320Z,3.90
2023-01-27T11:52:57.088Z,3.96
2023-01-27T11:53:56.265Z,3.88
2023-01-27T11:54:56.346Z,3.88
2023-01-27T11:55:56.521Z,3.89
2023-01-27T11:56:56.575Z,3.89
2023-01-27T11:57:57.101Z,3.94
2023-01-27T11:58:56.607Z,3.94
2023-01-27T11:59:57.425Z,3.96
2023-01-27T12:00:57.350Z,3.94
2023-01-27T12:01:57.233Z,3.97
2023-01-27T12:02:57.671Z,3.98
2023-01-27T12:03:56.655Z,4.01
2023-01-27T12:04:56.251Z,4.01
2023-01-27T12:05:57.462Z,4.03
2023-01-27T12:06:56.173Z,4.06
2023-01-27T12:07:57.179Z,4.03
2023-01-27T12:08:56.134Z,4.01
2023-01-27T12:09:56.058Z,4.01
2023-01-27T12:10:56.764Z,4.00
2023-01-27T12:11:56.144Z,4.00
2023-01-27T12:12:56.051Z,3.97
2023-01-27T12:13:56.052Z,3.97
2023-01-27T12:14:57.013Z,3.94
2023-01-27T12:15:56.083Z,3.92
2023-01-27T12:16:56.048Z,3.89
2023-01-27T12:17:55.969Z,3.88
2023-01-27T12:18:55.963Z,3.88
2023-01-27T12:19:55.953Z,3.86
2023-01-27T12:20:56.950Z,3.89
2023-01-27T12:21:55.911Z,3.88
2023-01-27T12:22:55.898Z,3.89
2023-01-27T12:23:56.078Z,3.90
2023-01-27T12:24:55.937Z,3.90
2023-01-27T12:25:56.988Z,3.89
2023-01-27T12:26:55.942Z,3.86
2023-01-27T12:27:56.000Z,3.85
2023-01-27T12:28:55.994Z,3.82
2023-01-27T12:29:55.797Z,3.82
2023-01-27T12:30:57.076Z,3.82
2023-01-27T12:31:56.947Z,3.83
2023-01-27T12:32:56.001Z,3.85
2023-01-27T12:33:55.764Z,3.86
2023-01-27T12:34:56.637Z,3.86
2023-01-27T12:35:56.521Z,3.90
2023-01-27T12:36:56.943Z,3.94
2023-01-27T12:37:55.742Z,4.00
2023-01-27T12:38:55.770Z,3.98
2023-01-27T12:39:55.773Z,4.06
2023-01-27T12:40:55.810Z,4.08
2023-01-27T12:41:55.698Z,4.08
2023-01-27T12:42:55.649Z,4.10
2023-01-27T12:43:55.685Z,4.08
2023-01-27T12:44:56.284Z,4.12
2023-01-27T12:45:55.616Z,4.15
2023-01-27T12:46:55.660Z,4.04
2023-01-27T12:47:55.605Z,4.06
2023-01-27T12:48:55.721Z,4.06
2023-01-27T12:49:56.711Z,4.06
2023-01-27T12:50:55.599Z,4.04
2023-01-27T12:51:55.532Z,3.98
2023-01-27T12:52:55.508Z,4.00
2023-01-27T12:53:56.344Z,3.98
2023-01-27T12:54:55.479Z,3.97
2023-01-27T12:55:55.521Z,3.89
2023-01-27T12:56:55.556Z,3.85
2023-01-27T12:57:55.594Z,3.85
2023-01-27T12:58:55.589Z,3.83
2023-01-27T12:59:55.439Z,3.80
2023-01-27T13:00:56.192Z,3.80
2023-01-27T13:01:55.630Z,3.82
2023-01-27T13:02:55.410Z,3.80
2023-01-27T13:03:55.408Z,3.78
2023-01-27T13:04:55.419Z,3.78
2023-01-27T13:05:55.333Z,3.78
2023-01-27T13:06:55.353Z,3.80
2023-01-27T13:07:55.296Z,3.80
2023-01-27T13:08:55.314Z,3.79
2023-01-27T13:09:55.274Z,3.78
2023-01-27T13:10:55.253Z,3.78
2023-01-27T13:11:55.259Z,3.79
2023-01-27T13:12:55.250Z,3.78
2023-01-27T13:13:55.223Z,3.78
2023-01-27T13:14:55.287Z,3.78
2023-01-27T13:15:55.212Z,3.76
2023-01-27T13:16:55.223Z,3.76
2023-01-27T13:17:55.213Z,3.75